createdAt,value
2022-09-29T00:01:07.913Z,5.30
2022-09-29T00:03:35.396Z,5.60
2022-09-29T00:06:02.862Z,5.25
2022-09-29T00:08:31.155Z,4.72
2022-09-29T00:10:58.701Z,5.57
2022-09-29T00:13:26.266Z,5.00
2022-09-29T00:16:01.498Z,5.07
2022-09-29T00:18:30.116Z,5.28
2022-09-29T00:21:01.687Z,4.85
2022-09-29T00:23:30.802Z,5.05
2022-09-29T00:26:08.521Z,5.35
2022-09-29T00:28:37.435Z,4.72
2022-09-29T00:31:06.233Z,4.72
2022-09-29T00:33:36.077Z,5.18
2022-09-29T00:36:06.201Z,4.82
2022-09-29T00:38:35.069Z,5.28
2022-09-29T00:41:03.139Z,4.88
2022-09-29T00:43:54.736Z,5.75
2022-09-29T00:46:59.867Z,5.18
2022-09-29T00:49:47.244Z,4.97
2022-09-29T00:52:49.656Z,4.57
2022-09-29T00:55:21.344Z,4.68
2022-09-29T00:58:01.712Z,5.07
2022-09-29T01:00:29.259Z,5.18
2022-09-29T01:03:04.718Z,4.78
2022-09-29T01:05:40.890Z,5.10
2022-09-29T01:08:35.545Z,4.88
2022-09-29T01:11:04.519Z,5.25
2022-09-29T01:13:33.658Z,4.65
2022-09-29T01:16:01.602Z,5.50
2022-09-29T01:18:30.203Z,5.20
2022-09-29T01:21:12.514Z,5.07
2022-09-29T01:24:23.046Z,5.10
2022-09-29T01:27:14.601Z,4.97
2022-09-29T01:30:03.330Z,5.28
2022-09-29T01:32:58.027Z,5.13
2022-09-29T01:35:54.463Z,5.40
2022-09-29T01:38:50.298Z,5.00
2022-09-29T01:41:21.841Z,5.10
2022-09-29T01:43:59.205Z,5.03
2022-09-29T01:46:39.723Z,5.90
2022-09-29T01:49:08.399Z,5.63
2022-09-29T01:51:50.076Z,5.43
2022-09-29T01:54:23.926Z,5.57
2022-09-29T01:56:59.820Z,5.40
2022-09-29T01:59:38.935Z,5.88
2022-09-29T02:02:12.997Z,5.78
2022-09-29T02:04:49.078Z,6.03
2022-09-29T02:07:25.095Z,5.47
2022-09-29T02:10:01.759Z,5.75
2022-09-29T02:12:32.999Z,5.05
2022-09-29T02:15:04.180Z,6.38
2022-09-29T02:17:36.871Z,6.28
2022-09-29T02:20:04.882Z,5.35
2022-09-29T02:22:32.914Z,6.70
2022-09-29T02:25:01.301Z,5.50
2022-09-29T02:27:34.093Z,5.25
2022-09-29T02:30:01.293Z,5.80
2022-09-29T02:32:31.870Z,5.72
2022-09-29T02:34:59.093Z,5.90
2022-09-29T02:37:41.238Z,5.97
2022-09-29T02:40:22.343Z,6.05
2022-09-29T02:43:09.574Z,6.38
2022-09-29T02:46:11.099Z,6.05
2022-09-29T02:48:50.758Z,5.32
2022-09-29T02:51:26.001Z,6.05
2022-09-29T02:54:35.500Z,5.70
2022-09-29T02:57:18.085Z,5.93
2022-09-29T02:59:57.678Z,5.60
2022-09-29T03:02:26.750Z,5.97
2022-09-29T03:04:54.532Z,6.32
2022-09-29T03:07:22.412Z,6.32
2022-09-29T03:09:50.223Z,6.57
2022-09-29T03:12:18.582Z,6.30
2022-09-29T03:14:45.939Z,6.30
2022-09-29T03:17:13.334Z,6.15
2022-09-29T03:19:40.738Z,5.78
2022-09-29T03:22:08.195Z,5.53
2022-09-29T03:24:36.487Z,5.53
2022-09-29T03:27:04.756Z,5.78
2022-09-29T03:29:32.207Z,5.68
2022-09-29T03:32:00.538Z,5.88
2022-09-29T03:34:27.869Z,5.20
2022-09-29T03:36:55.213Z,5.20
2022-09-29T03:39:22.530Z,6.00
2022-09-29T03:41:50.139Z,5.60
2022-09-29T03:44:17.513Z,5.88
2022-09-29T03:46:46.460Z,6.05
2022-09-29T03:49:15.767Z,6.40
2022-09-29T03:51:43.308Z,5.95
2022-09-29T03:54:11.371Z,5.88
2022-09-29T03:56:39.339Z,6.18
2022-09-29T03:59:09.681Z,6.55
2022-09-29T04:01:38.596Z,5.45
2022-09-29T04:04:07.149Z,6.13
2022-09-29T04:06:34.757Z,6.07
2022-09-29T04:09:02.176Z,6.53
2022-09-29T04:11:29.541Z,6.88
2022-09-29T04:13:56.698Z,6.30
2022-09-29T04:16:23.957Z,5.88
2022-09-29T04:18:51.250Z,6.13
2022-09-29T04:21:18.478Z,6.70
2022-09-29T04:23:47.088Z,6.50
2022-09-29T04:26:14.502Z,5.95
2022-09-29T04:28:41.920Z,6.80
2022-09-29T04:31:09.402Z,6.30
2022-09-29T04:33:37.358Z,6.75
2022-09-29T04:36:05.188Z,6.18
2022-09-29T04:38:32.901Z,6.68
2022-09-29T04:41:00.538Z,6.47
2022-09-29T05:16:02.163Z,6.82
2022-09-29T05:18:47.876Z,6.43
2022-09-29T05:32:06.995Z,7.47
2022-09-29T05:37:43.088Z,6.07
2022-09-29T05:43:40.211Z,7.55
2022-09-29T05:46:23.397Z,6.40
2022-09-29T05:49:22.907Z,6.70
2022-09-29T06:03:03.754Z,6.45
2022-09-29T06:05:40.205Z,6.25
2022-09-29T06:08:18.639Z,6.13
2022-09-29T06:11:18.007Z,5.95
2022-09-29T06:13:58.572Z,6.68
2022-09-29T06:16:51.096Z,6.38
2022-09-29T06:19:22.338Z,6.38
2022-09-29T06:22:02.643Z,6.15
2022-09-29T06:24:30.696Z,6.00
2022-09-29T06:27:00.393Z,5.68
2022-09-29T06:30:02.532Z,5.38
2022-09-29T06:32:34.213Z,5.47
2022-09-29T06:35:26.336Z,5.13
2022-09-29T06:51:45.795Z,5.07
2022-09-29T07:24:52.524Z,5.00
2022-09-29T07:27:39.538Z,4.95
2022-09-29T07:49:52.904Z,4.85
2022-09-29T08:31:39.337Z,3.50
2022-09-29T08:34:08.073Z,3.13
2022-09-29T08:36:37.904Z,2.97
2022-09-29T08:39:20.077Z,3.20
2022-09-29T08:45:33.140Z,3.35
2022-09-29T08:48:23.666Z,3.70
2022-09-29T08:57:37.966Z,4.30
2022-09-29T09:00:18.945Z,4.70
2022-09-29T09:03:07.940Z,4.57
2022-09-29T09:06:06.174Z,4.60
2022-09-29T09:09:17.587Z,4.20
2022-09-29T09:12:16.597Z,5.28
2022-09-29T09:15:35.067Z,4.85
2022-09-29T09:18:26.587Z,5.88
2022-09-29T09:21:17.530Z,5.35
2022-09-29T09:24:11.757Z,5.60
2022-09-29T09:26:58.999Z,5.75
2022-09-29T09:43:50.280Z,6.82
2022-09-29T10:36:15.972Z,4.70
2022-09-29T10:39:03.757Z,4.50
2022-09-29T10:45:24.653Z,4.60
2022-09-29T10:51:25.398Z,4.60
2022-09-29T10:53:53.412Z,4.50
2022-09-29T10:56:26.028Z,5.28
2022-09-29T10:59:03.290Z,5.53
2022-09-29T11:01:45.598Z,5.40
2022-09-29T11:04:28.094Z,4.75
2022-09-29T11:06:56.489Z,4.85
2022-09-29T11:09:24.270Z,5.82
2022-09-29T11:12:01.434Z,5.63
2022-09-29T11:14:40.103Z,6.07
2022-09-29T11:17:40.093Z,5.40
2022-09-29T11:20:15.408Z,5.30
2022-09-29T11:23:03.972Z,5.18
2022-09-29T11:25:48.932Z,5.47
2022-09-29T11:28:34.978Z,7.68
2022-09-29T11:31:46.653Z,5.60
2022-09-29T11:38:13.176Z,5.05
2022-09-29T11:41:27.315Z,5.30
2022-09-29T11:44:09.053Z,6.07
2022-09-29T11:47:03.709Z,4.60
2022-09-29T11:49:43.344Z,5.18
2022-09-29T11:52:26.049Z,6.28
2022-09-29T11:55:46.429Z,5.15
2022-09-29T11:58:56.675Z,4.68
2022-09-29T12:02:03.081Z,4.20
2022-09-29T12:04:57.027Z,3.78
2022-09-29T12:08:16.351Z,3.50
2022-09-29T12:11:40.439Z,3.95
2022-09-29T12:14:40.502Z,3.72
2022-09-29T12:17:29.938Z,3.38
2022-09-29T12:26:57.802Z,3.45
2022-09-29T12:29:58.235Z,3.60
2022-09-29T12:32:52.465Z,2.97
2022-09-29T12:35:34.079Z,3.67
2022-09-29T12:38:23.952Z,3.60
2022-09-29T12:41:16.570Z,3.13
2022-09-29T12:43:56.487Z,2.60
2022-09-29T12:46:42.816Z,2.55
2022-09-29T12:49:29.127Z,3.20
2022-09-29T12:51:57.779Z,3.55
2022-09-29T12:54:25.544Z,3.60
2022-09-29T12:57:08.495Z,3.03
2022-09-29T12:59:42.189Z,3.40
2022-09-29T13:02:37.048Z,3.38
2022-09-29T13:05:29.801Z,3.58
2022-09-29T13:08:31.964Z,3.70
2022-09-29T13:11:39.247Z,3.40
2022-09-29T13:14:44.025Z,2.80
2022-09-29T13:18:09.312Z,3.72
2022-09-29T13:20:56.829Z,3.05
2022-09-29T13:23:57.448Z,3.30
2022-09-29T13:26:37.588Z,3.28
2022-09-29T13:29:16.628Z,2.65
2022-09-29T13:31:49.515Z,2.97
2022-09-29T13:34:32.430Z,3.08
2022-09-29T13:37:25.194Z,3.10
2022-09-29T13:40:09.199Z,2.97
2022-09-29T13:42:44.341Z,3.17
2022-09-29T13:45:22.287Z,2.90
2022-09-29T13:47:58.786Z,3.00
2022-09-29T13:50:45.854Z,3.25
2022-09-29T13:53:34.061Z,4.18
2022-09-29T13:56:03.934Z,3.60
2022-09-29T13:58:59.345Z,4.03
2022-09-29T14:01:33.413Z,3.88
2022-09-29T14:04:39.423Z,3.47
2022-09-29T14:07:08.533Z,4.88
2022-09-29T14:09:39.901Z,4.20
2022-09-29T14:12:17.984Z,3.60
2022-09-29T14:14:55.800Z,3.70
2022-09-29T14:17:31.587Z,4.05
2022-09-29T14:20:21.700Z,3.20
2022-09-29T14:22:55.639Z,3.17
2022-09-29T14:25:36.407Z,3.63
2022-09-29T14:28:12.424Z,3.78
2022-09-29T14:30:55.084Z,3.85
2022-09-29T14:33:40.858Z,3.10
2022-09-29T14:36:20.442Z,4.10
2022-09-29T14:39:14.415Z,3.83
2022-09-29T14:41:43.801Z,3.70
2022-09-29T14:44:13.598Z,3.80
2022-09-29T14:47:10.394Z,3.78
2022-09-29T14:50:04.796Z,3.83
2022-09-29T14:52:52.742Z,4.40
2022-09-29T14:55:36.364Z,4.75
2022-09-29T14:58:21.734Z,4.53
2022-09-29T15:01:28.450Z,4.35
2022-09-29T15:04:08.540Z,5.07
2022-09-29T15:06:35.611Z,5.13
2022-09-29T15:09:16.229Z,4.72
2022-09-29T15:11:55.217Z,5.38
2022-09-29T15:14:22.555Z,4.45
2022-09-29T15:17:14.992Z,4.45
2022-09-29T15:19:41.894Z,4.63
2022-09-29T15:22:46.039Z,4.25
2022-09-29T15:25:31.681Z,4.40
2022-09-29T15:28:02.781Z,4.28
2022-09-29T15:30:31.353Z,4.38
2022-09-29T15:33:18.182Z,4.30
2022-09-29T15:38:29.667Z,3.92
2022-09-29T15:41:00.429Z,4.25
2022-09-29T15:43:30.328Z,3.70
2022-09-29T15:46:19.811Z,4.60
2022-09-29T15:49:08.731Z,4.10
2022-09-29T15:51:36.646Z,4.82
2022-09-29T15:54:10.817Z,4.18
2022-09-29T15:56:56.986Z,4.10
2022-09-29T15:59:54.401Z,3.85
2022-09-29T16:02:36.333Z,4.82
2022-09-29T16:05:16.255Z,4.68
2022-09-29T16:08:03.350Z,4.50
2022-09-29T16:10:56.431Z,5.47
2022-09-29T16:13:27.787Z,5.93
2022-09-29T16:15:58.637Z,6.15
2022-09-29T16:18:45.789Z,5.53
2022-09-29T16:21:18.980Z,5.55
2022-09-29T16:23:52.112Z,6.72
2022-09-29T16:26:32.597Z,6.13
2022-09-29T16:29:13.102Z,5.80
2022-09-29T16:31:46.789Z,7.13
2022-09-29T16:34:32.694Z,7.22
2022-09-29T16:37:03.725Z,7.33
2022-09-29T16:39:43.096Z,6.95
2022-09-29T16:42:28.400Z,7.45
2022-09-29T16:44:57.170Z,8.10
2022-09-29T16:47:30.888Z,9.20
2022-09-29T16:50:02.647Z,8.52
2022-09-29T16:52:47.512Z,8.85
2022-09-29T16:55:28.277Z,9.65
2022-09-29T16:57:59.568Z,10.00
2022-09-29T17:00:27.304Z,11.13
2022-09-29T17:02:59.298Z,14.80
2022-09-29T17:05:27.979Z,21.33
2022-09-29T17:10:36.257Z,23.85
2022-09-29T17:13:17.326Z,20.90
2022-09-29T17:15:52.813Z,19.38
2022-09-29T17:18:21.193Z,22.55
2022-09-29T17:20:48.356Z,23.02
2022-09-29T17:23:15.654Z,24.15
2022-09-29T17:25:45.738Z,23.08
2022-09-29T17:28:16.541Z,27.08
2022-09-29T17:30:46.916Z,16.30
2022-09-29T17:33:16.362Z,17.35
2022-09-29T17:35:51.551Z,18.48
2022-09-29T17:38:21.820Z,19.17
2022-09-29T17:41:02.738Z,17.48
2022-09-29T17:43:31.816Z,20.10
2022-09-29T17:46:01.041Z,24.08
2022-09-29T17:48:30.139Z,23.80
2022-09-29T17:50:59.601Z,22.58
2022-09-29T17:53:27.412Z,23.05
2022-09-29T17:55:58.153Z,26.23
2022-09-29T17:58:26.244Z,25.55
2022-09-29T18:00:55.677Z,26.17
2022-09-29T18:03:23.345Z,31.63
2022-09-29T18:05:57.018Z,31.33
2022-09-29T18:08:27.958Z,28.52
2022-09-29T18:10:57.080Z,36.42
2022-09-29T18:13:27.414Z,41.40
2022-09-29T18:15:55.677Z,32.05
2022-09-29T18:18:24.070Z,37.55
2022-09-29T18:20:51.541Z,32.97
2022-09-29T18:23:20.888Z,26.92
2022-09-29T18:25:51.198Z,29.65
2022-09-29T18:28:19.347Z,29.33
2022-09-29T18:30:50.092Z,23.63
2022-09-29T18:33:20.307Z,21.80
2022-09-29T18:35:52.630Z,18.88
2022-09-29T18:38:20.989Z,16.25
2022-09-29T18:40:48.037Z,17.35
2022-09-29T18:43:16.632Z,19.08
2022-09-29T18:45:44.120Z,17.75
2022-09-29T18:48:17.078Z,15.45
2022-09-29T18:50:47.744Z,13.85
2022-09-29T18:53:18.205Z,11.85
2022-09-29T18:55:45.788Z,12.57
2022-09-29T18:58:15.825Z,12.07
2022-09-29T19:00:51.008Z,13.27
2022-09-29T19:03:19.419Z,12.60
2022-09-29T19:05:48.146Z,12.13
2022-09-29T19:08:16.421Z,13.27
2022-09-29T19:10:52.122Z,13.25
2022-09-29T19:13:19.534Z,13.40
2022-09-29T19:15:47.795Z,14.60
2022-09-29T19:18:24.630Z,14.02
2022-09-29T19:20:58.084Z,17.60
2022-09-29T19:23:27.098Z,18.23
2022-09-29T19:25:58.580Z,19.88
2022-09-29T19:28:27.650Z,19.33
2022-09-29T19:30:56.197Z,19.08
2022-09-29T19:33:24.347Z,22.25
2022-09-29T19:35:55.111Z,28.55
2022-09-29T19:38:23.232Z,24.85
2022-09-29T19:40:51.837Z,20.80
2022-09-29T19:43:21.560Z,19.77
2022-09-29T19:45:49.862Z,18.48
2022-09-29T19:48:19.827Z,18.40
2022-09-29T19:51:07.102Z,17.63
2022-09-29T19:53:37.665Z,15.57
2022-09-29T19:56:12.934Z,15.75
2022-09-29T19:58:41.638Z,15.90
2022-09-29T20:01:11.075Z,14.57
2022-09-29T20:03:38.343Z,13.90
2022-09-29T20:06:06.824Z,13.35
2022-09-29T20:08:34.493Z,14.18
2022-09-29T20:11:10.064Z,13.73
2022-09-29T20:13:37.768Z,13.15
2022-09-29T20:16:06.100Z,13.65
2022-09-29T20:18:36.790Z,13.52
2022-09-29T20:21:12.786Z,14.40
2022-09-29T20:23:40.059Z,15.27
2022-09-29T20:26:10.915Z,14.48
2022-09-29T20:28:38.406Z,16.33
2022-09-29T20:31:08.064Z,15.90
2022-09-29T20:33:37.193Z,15.80
2022-09-29T20:36:06.009Z,14.80
2022-09-29T20:38:39.621Z,15.32
2022-09-29T20:41:07.546Z,15.88
2022-09-29T20:43:37.085Z,15.48
2022-09-29T20:46:06.648Z,14.70
2022-09-29T20:48:35.953Z,14.90
2022-09-29T20:51:04.972Z,14.75
2022-09-29T20:53:34.168Z,14.82
2022-09-29T20:56:05.805Z,16.30
2022-09-29T20:58:34.970Z,18.10
2022-09-29T21:01:18.095Z,17.42
2022-09-29T21:04:09.104Z,15.68
2022-09-29T21:06:46.230Z,15.82
2022-09-29T21:09:17.567Z,16.30
2022-09-29T21:11:45.393Z,14.70
2022-09-29T21:14:18.662Z,13.45
2022-09-29T21:16:50.219Z,13.20
2022-09-29T21:19:19.301Z,13.27
2022-09-29T21:21:46.341Z,13.07
2022-09-29T21:24:14.547Z,12.32
2022-09-29T21:26:42.253Z,12.70
2022-09-29T21:29:17.026Z,11.52
2022-09-29T21:31:44.757Z,12.80
2022-09-29T21:34:13.436Z,12.13
2022-09-29T21:36:40.948Z,11.27
2022-09-29T21:39:09.163Z,11.70
2022-09-29T21:41:41.471Z,11.20
2022-09-29T21:44:23.460Z,11.15
2022-09-29T21:46:51.671Z,9.68
2022-09-29T21:49:19.775Z,9.98
2022-09-29T21:51:51.236Z,10.63
2022-09-29T21:54:25.164Z,9.07
2022-09-29T21:56:52.525Z,9.60
2022-09-29T21:59:21.739Z,9.00
2022-09-29T22:01:49.253Z,10.07
2022-09-29T22:04:16.711Z,9.60
2022-09-29T22:06:45.337Z,9.90
2022-09-29T22:09:17.109Z,9.63
2022-09-29T22:11:44.298Z,10.15
2022-09-29T22:14:13.423Z,8.57
2022-09-29T22:16:41.177Z,9.32
2022-09-29T22:19:24.713Z,10.00
2022-09-29T22:21:55.350Z,12.05
2022-09-29T22:24:24.167Z,11.80
2022-09-29T22:26:51.426Z,11.15
2022-09-29T22:29:18.915Z,8.55
2022-09-29T22:31:46.388Z,8.52
2022-09-29T22:34:13.325Z,9.02
2022-09-29T22:36:40.232Z,8.32
2022-09-29T22:39:07.689Z,8.68
2022-09-29T22:41:37.050Z,9.23
2022-09-29T22:44:04.869Z,9.98
2022-09-29T22:46:32.745Z,11.45
2022-09-29T22:48:59.856Z,10.38
2022-09-29T22:51:26.864Z,11.05
2022-09-29T22:53:53.723Z,9.57
2022-09-29T22:56:28.573Z,9.85
2022-09-29T22:59:01.054Z,9.40
2022-09-29T23:01:28.228Z,9.88
2022-09-29T23:03:55.254Z,9.82
2022-09-29T23:06:22.154Z,9.27
2022-09-29T23:08:49.207Z,9.60
2022-09-29T23:11:19.504Z,9.35
2022-09-29T23:13:47.078Z,8.48
2022-09-29T23:16:15.678Z,8.77
2022-09-29T23:18:45.206Z,10.18
2022-09-29T23:21:15.104Z,8.35
2022-09-29T23:23:42.346Z,8.98
2022-09-29T23:26:09.540Z,9.15
2022-09-29T23:28:36.970Z,8.85
2022-09-29T23:31:08.046Z,8.98
2022-09-29T23:33:35.232Z,8.68
2022-09-29T23:36:10.159Z,8.65
2022-09-29T23:39:01.662Z,8.35
2022-09-29T23:41:30.263Z,9.02
2022-09-29T23:43:59.360Z,8.52
2022-09-29T23:46:31.834Z,8.63
2022-09-29T23:49:00.117Z,8.30
2022-09-29T23:51:28.425Z,8.85
2022-09-29T23:53:55.287Z,8.70
2022-09-29T23:56:22.175Z,9.23
2022-09-29T23:58:49.099Z,9.20
